createdAt,value
2023-12-12T00:01:53.154Z,1.42
2023-12-12T00:06:57.958Z,1.67
2023-12-12T00:12:01.563Z,1.85
2023-12-12T00:17:05.240Z,2.00
2023-12-12T00:22:10.390Z,3.33
2023-12-12T00:27:13.799Z,0.93
2023-12-12T00:32:17.168Z,1.58
2023-12-12T00:37:22.045Z,0.70
2023-12-12T00:42:25.414Z,1.35
2023-12-12T00:47:28.972Z,0.85
2023-12-12T00:52:33.759Z,1.80
2023-12-12T00:57:37.763Z,1.27
2023-12-12T01:02:41.178Z,1.20
2023-12-12T01:07:46.236Z,0.70
2023-12-12T01:12:49.782Z,0.73
2023-12-12T01:17:53.182Z,1.02
2023-12-12T01:22:58.053Z,1.52
2023-12-12T01:28:01.882Z,0.93
2023-12-12T01:33:05.505Z,1.23
2023-12-12T01:38:10.263Z,2.15
2023-12-12T01:43:13.666Z,1.10
2023-12-12T01:48:17.298Z,4.65
2023-12-12T01:53:25.365Z,2.58
2023-12-12T01:58:28.731Z,1.17
2023-12-12T02:03:33.275Z,0.93
2023-12-12T02:08:38.122Z,2.25
2023-12-12T02:13:41.451Z,1.30
2023-12-12T02:18:44.930Z,1.23
2023-12-12T02:23:49.703Z,1.35
2023-12-12T02:28:53.590Z,2.10
2023-12-12T02:33:56.950Z,2.38
2023-12-12T02:39:01.766Z,0.95
2023-12-12T02:44:07.027Z,0.60
2023-12-12T02:49:11.247Z,1.88
2023-12-12T02:54:16.095Z,1.65
2023-12-12T02:59:19.456Z,1.65
2023-12-12T03:04:22.792Z,0.47
2023-12-12T03:09:27.511Z,0.95
2023-12-12T03:14:30.973Z,1.25
2023-12-12T03:19:34.596Z,1.27
2023-12-12T03:24:39.446Z,2.33
2023-12-12T03:29:42.778Z,0.40
2023-12-12T03:34:46.119Z,1.50
2023-12-12T03:39:50.871Z,0.73
2023-12-12T03:44:54.292Z,1.75
2023-12-12T03:49:57.728Z,1.25
2023-12-12T03:55:02.489Z,1.55
2023-12-12T04:00:08.719Z,2.85
2023-12-12T04:05:18.243Z,1.70
2023-12-12T04:10:23.192Z,1.47
2023-12-12T04:15:26.599Z,0.83
2023-12-12T04:20:30.767Z,1.67
2023-12-12T04:25:35.495Z,0.67
2023-12-12T04:30:38.813Z,1.73
2023-12-12T04:35:42.113Z,1.97
2023-12-12T04:40:46.732Z,2.13
2023-12-12T04:45:50.143Z,3.90
2023-12-12T04:50:53.485Z,1.70
2023-12-12T04:55:58.224Z,1.10
2023-12-12T05:01:01.652Z,1.70
2023-12-12T05:06:05.698Z,1.88
2023-12-12T05:11:10.486Z,2.30
2023-12-12T05:16:24.281Z,1.85
2023-12-12T05:21:34.725Z,2.10
2023-12-12T05:26:39.374Z,0.90
2023-12-12T05:31:42.773Z,1.23
2023-12-12T05:36:46.190Z,0.50
2023-12-12T05:41:50.946Z,0.98
2023-12-12T05:46:54.249Z,1.00
2023-12-12T05:51:57.730Z,2.47
2023-12-12T05:57:02.415Z,4.03
2023-12-12T06:02:06.175Z,1.58
2023-12-12T06:07:09.721Z,1.33
2023-12-12T06:12:15.485Z,2.17
2023-12-12T06:17:18.824Z,3.10
2023-12-12T06:22:22.594Z,1.67
2023-12-12T06:27:27.331Z,8.45
2023-12-12T06:32:31.049Z,3.23
2023-12-12T06:37:34.848Z,2.60
2023-12-12T06:42:39.657Z,2.85
2023-12-12T06:47:42.998Z,5.00
2023-12-12T06:52:46.348Z,1.38
2023-12-12T06:57:57.572Z,2.38
2023-12-12T07:03:01.424Z,1.73
2023-12-12T07:08:06.078Z,1.40
2023-12-12T07:13:13.107Z,3.05
2023-12-12T07:18:16.596Z,1.98
2023-12-12T07:23:20.045Z,2.38
2023-12-12T07:28:24.920Z,0.82
2023-12-12T07:33:28.468Z,1.50
2023-12-12T07:38:31.882Z,2.50
2023-12-12T07:43:36.852Z,1.65
2023-12-12T07:48:40.162Z,3.03
2023-12-12T07:53:43.930Z,3.35
2023-12-12T07:58:48.790Z,1.45
2023-12-12T08:03:53.550Z,3.35
2023-12-12T08:08:56.855Z,2.47
2023-12-12T08:14:01.890Z,3.80
2023-12-12T08:19:05.780Z,1.55
2023-12-12T08:24:09.838Z,3.47
2023-12-12T08:29:15.534Z,3.05
2023-12-12T08:34:18.924Z,5.78
2023-12-12T08:39:22.227Z,3.35
2023-12-12T08:44:27.185Z,3.70
2023-12-12T08:49:30.657Z,5.18
2023-12-12T08:54:34.194Z,4.15
2023-12-12T08:59:40.632Z,4.55
2023-12-12T09:04:44.050Z,6.40
2023-12-12T09:09:47.454Z,7.00
2023-12-12T09:14:52.258Z,4.50
2023-12-12T09:19:55.876Z,6.78
2023-12-12T09:24:59.205Z,7.22
2023-12-12T09:30:07.828Z,6.88
2023-12-12T09:35:11.491Z,5.63
2023-12-12T09:40:15.057Z,8.60
2023-12-12T09:45:20.348Z,6.88
2023-12-12T09:50:23.821Z,3.95
2023-12-12T09:55:27.601Z,4.45
2023-12-12T10:00:33.095Z,4.38
2023-12-12T10:05:40.090Z,4.40
2023-12-12T10:10:43.761Z,5.18
2023-12-12T10:15:48.911Z,3.55
2023-12-12T10:20:52.221Z,4.82
2023-12-12T10:25:57.522Z,3.25
2023-12-12T10:31:02.694Z,3.55
2023-12-12T10:36:10.150Z,3.33
2023-12-12T10:41:15.392Z,3.05
2023-12-12T10:46:22.003Z,2.15
2023-12-12T10:51:27.473Z,2.42
2023-12-12T10:56:37.128Z,2.85
2023-12-12T11:01:42.230Z,2.90
2023-12-12T11:06:46.671Z,1.27
2023-12-12T11:11:52.484Z,2.05
2023-12-12T11:17:00.054Z,3.58
2023-12-12T11:22:04.363Z,1.70
2023-12-12T11:27:08.850Z,1.92
2023-12-12T11:32:17.985Z,2.75
2023-12-12T11:37:24.273Z,3.03
2023-12-12T11:42:27.775Z,1.60
2023-12-12T11:47:33.267Z,2.45
2023-12-12T11:52:51.836Z,2.83
2023-12-12T11:58:00.367Z,2.70
2023-12-12T12:03:06.570Z,2.35
2023-12-12T12:08:10.474Z,4.60
2023-12-12T12:13:13.971Z,2.28
2023-12-12T12:18:28.982Z,3.35
2023-12-12T12:23:33.538Z,2.88
2023-12-12T12:28:38.239Z,2.50
2023-12-12T12:33:42.921Z,2.67
2023-12-12T12:38:46.320Z,3.40
2023-12-12T12:43:53.874Z,3.13
2023-12-12T12:48:58.887Z,5.15
2023-12-12T12:54:02.296Z,2.13
2023-12-12T12:59:05.654Z,2.85
2023-12-12T13:04:12.075Z,2.95
2023-12-12T13:09:19.177Z,1.95
2023-12-12T13:14:22.646Z,3.30
2023-12-12T13:19:28.483Z,2.22
2023-12-12T13:24:36.291Z,1.52
2023-12-12T13:29:41.958Z,3.40
2023-12-12T13:34:51.305Z,3.72
2023-12-12T13:39:54.942Z,2.83
2023-12-12T13:44:58.300Z,2.90
2023-12-12T13:50:03.135Z,2.40
2023-12-12T13:55:07.423Z,3.25
2023-12-12T14:00:13.556Z,4.38
2023-12-12T14:05:19.696Z,4.78
2023-12-12T14:10:24.277Z,4.18
2023-12-12T14:15:27.684Z,5.93
2023-12-12T14:20:32.369Z,5.13
2023-12-12T14:25:35.678Z,3.60
2023-12-12T14:30:39.632Z,3.42
2023-12-12T14:35:44.387Z,2.63
2023-12-12T14:40:49.239Z,4.10
2023-12-12T14:45:52.674Z,5.45
2023-12-12T14:50:57.657Z,5.80
2023-12-12T14:56:01.104Z,3.42
2023-12-12T15:01:04.605Z,7.93
2023-12-12T15:06:09.999Z,4.43
2023-12-12T15:11:13.378Z,3.05
2023-12-12T15:16:17.000Z,3.92
2023-12-12T15:21:25.632Z,4.45
2023-12-12T15:26:29.408Z,5.35
2023-12-12T15:31:32.884Z,4.65
2023-12-12T15:36:37.951Z,5.75
2023-12-12T15:41:41.220Z,4.03
2023-12-12T15:46:44.588Z,3.72
2023-12-12T15:51:49.271Z,4.88
2023-12-12T15:56:52.647Z,5.65
2023-12-12T16:01:58.741Z,3.28
2023-12-12T16:07:04.305Z,2.78
2023-12-12T16:12:09.534Z,2.85
2023-12-12T16:17:13.385Z,4.47
2023-12-12T16:22:18.140Z,2.65
2023-12-12T16:27:21.526Z,4.25
2023-12-12T16:32:24.939Z,5.32
2023-12-12T16:37:29.825Z,3.58
2023-12-12T16:42:33.509Z,3.45
2023-12-12T16:47:39.095Z,5.68
2023-12-12T16:52:44.984Z,6.57
2023-12-12T16:57:48.521Z,3.50
2023-12-12T17:02:53.211Z,4.10
2023-12-12T17:07:58.264Z,2.83
2023-12-12T17:13:01.735Z,2.83
2023-12-12T17:18:06.173Z,4.20
2023-12-12T17:23:11.125Z,3.78
2023-12-12T17:28:14.712Z,2.88
2023-12-12T17:33:18.204Z,2.25
2023-12-12T17:38:23.363Z,3.40
2023-12-12T17:43:26.835Z,5.82
2023-12-12T17:48:30.334Z,4.10
2023-12-12T17:53:35.070Z,3.10
2023-12-12T17:58:38.380Z,4.13
2023-12-12T18:03:43.718Z,3.50
2023-12-12T18:08:48.979Z,3.60
2023-12-12T18:13:52.364Z,4.65
2023-12-12T18:18:56.098Z,3.72
2023-12-12T18:24:01.320Z,5.07
2023-12-12T18:29:06.173Z,4.35
2023-12-12T18:34:09.818Z,3.50
2023-12-12T18:39:16.220Z,4.28
2023-12-12T18:44:19.912Z,4.00
2023-12-12T18:49:23.741Z,5.13
2023-12-12T18:54:28.931Z,4.95
2023-12-12T18:59:33.609Z,5.90
2023-12-12T19:04:38.714Z,7.25
2023-12-12T19:09:45.092Z,5.95
2023-12-12T19:14:50.072Z,5.57
2023-12-12T19:19:55.380Z,7.20
2023-12-12T19:25:02.811Z,5.40
2023-12-12T19:30:11.956Z,4.50
2023-12-12T19:35:17.908Z,5.85
2023-12-12T19:40:27.636Z,5.20
2023-12-12T19:45:32.970Z,6.25
2023-12-12T19:50:38.595Z,5.57
2023-12-12T19:55:46.005Z,4.22
2023-12-12T20:00:51.619Z,5.85
2023-12-12T20:05:57.064Z,5.53
2023-12-12T20:11:05.158Z,6.43
2023-12-12T20:16:21.401Z,7.60
2023-12-12T20:21:29.742Z,7.95
2023-12-12T20:26:38.427Z,6.03
2023-12-12T20:31:48.386Z,5.60
2023-12-12T20:36:57.235Z,6.70
2023-12-12T20:42:05.840Z,8.75
2023-12-12T20:47:12.279Z,7.30
2023-12-12T20:52:17.800Z,7.15
2023-12-12T20:57:25.541Z,7.30
2023-12-12T21:02:29.094Z,6.75
2023-12-12T21:07:32.764Z,9.88
2023-12-12T21:12:37.486Z,5.88
2023-12-12T21:17:40.890Z,8.10
2023-12-12T21:22:44.370Z,5.93
2023-12-12T21:27:49.111Z,6.97
2023-12-12T21:32:52.407Z,5.68
2023-12-12T21:37:55.842Z,7.15
2023-12-12T21:43:00.837Z,6.45
2023-12-12T21:48:04.249Z,4.18
2023-12-12T21:53:07.628Z,5.57
2023-12-12T21:58:12.346Z,5.00
2023-12-12T22:03:15.655Z,6.03
2023-12-12T22:08:18.959Z,6.78
2023-12-12T22:13:23.834Z,5.00
2023-12-12T22:18:27.163Z,5.63
2023-12-12T22:23:30.505Z,5.75
2023-12-12T22:28:35.148Z,6.72
2023-12-12T22:33:38.994Z,6.53
2023-12-12T22:38:42.284Z,5.47
2023-12-12T22:43:47.025Z,5.22
2023-12-12T22:48:50.494Z,7.97
2023-12-12T22:53:53.859Z,6.07
2023-12-12T22:59:00.268Z,7.82
2023-12-12T23:04:04.335Z,6.50
2023-12-12T23:09:10.186Z,6.70
2023-12-12T23:14:14.772Z,7.40
2023-12-12T23:19:18.236Z,7.68
2023-12-12T23:24:21.895Z,6.53
2023-12-12T23:29:26.543Z,6.85
2023-12-12T23:34:29.912Z,7.10
2023-12-12T23:39:33.289Z,7.10
2023-12-12T23:44:38.040Z,5.53
2023-12-12T23:49:41.664Z,6.60
2023-12-12T23:54:45.071Z,7.82
2023-12-12T23:59:50.038Z,6.43
